Time;durP1;ratioP1;P1;durP2;ratioP2;P2;SDS_P1;SDS_P2;PMS_P1;PMS_P2;Temp;Humidity;BMP_temperature;BMP_pressure;BME280_temperature;BME280_humidity;BME280_pressure;Samples;Min_cycle;Max_cycle;Signal;HPM_P1;HPM_P2
2024/03/08 00:00:09;;;;;;;;;;;;;;;17.80;43.61;99957.03;10284113;28;1088;-71
2024/03/08 00:05:05;;;;;;;;;;;;;;;17.79;43.61;99949.13;10285461;28;771;-71
2024/03/08 00:10:01;;;;;;;;;;;;;;;17.78;43.91;99948.28;10284311;28;1215;-71
2024/03/08 00:14:56;;;;;;;;;;;;;;;17.75;43.62;99943.97;10282800;28;1961;-71
2024/03/08 00:19:52;;;;;;;;;;;;;;;17.75;43.65;99941.34;10285156;28;799;-71
2024/03/08 00:24:50;;;;;;;;;;;;;;;17.74;43.81;99944.91;10284290;28;857;-71
2024/03/08 00:29:46;;;;;;;;;;;;;;;17.74;43.85;99938.78;10284124;28;898;-71
2024/03/08 00:34:42;;;;;;;;;;;;;;;17.72;43.85;99932.72;10284055;28;1949;-71
2024/03/08 00:39:38;;;;;;;;;;;;;;;17.71;43.69;99931.88;10284585;28;933;-71
2024/03/08 00:44:34;;;;;;;;;;;;;;;17.71;43.80;99923.97;10284194;28;810;-71
2024/03/08 00:49:30;;;;;;;;;;;;;;;17.70;43.63;99922.22;10284409;28;889;-71
2024/03/08 00:54:26;;;;;;;;;;;;;;;17.67;43.61;99914.44;10283696;28;1894;-71
2024/03/08 00:59:22;;;;;;;;;;;;;;;17.68;43.67;99903.00;10283594;28;799;-71
2024/03/08 01:04:18;;;;;;;;;;;;;;;17.66;43.77;99904.81;10284384;28;873;-71
2024/03/08 01:09:17;;;;;;;;;;;;;;;17.67;43.73;99900.41;10283357;28;1909;-71
2024/03/08 01:14:13;;;;;;;;;;;;;;;17.65;43.78;99889.91;10283078;28;1903;-71
2024/03/08 01:19:08;;;;;;;;;;;;;;;17.65;43.75;99892.53;10283223;28;910;-71
2024/03/08 01:24:04;;;;;;;;;;;;;;;17.64;43.73;99872.41;10285792;28;764;-71
2024/03/08 01:29:02;;;;;;;;;;;;;;;17.63;43.83;99873.31;10290912;28;945;-71
2024/03/08 01:33:58;;;;;;;;;;;;;;;17.64;43.76;99859.22;10289753;28;1890;-71
2024/03/08 01:38:54;;;;;;;;;;;;;;;17.64;43.80;99856.56;10290372;28;1632;-71
2024/03/08 01:43:50;;;;;;;;;;;;;;;17.62;43.80;99841.75;10289737;28;918;-71
2024/03/08 01:48:46;;;;;;;;;;;;;;;17.62;43.61;99832.06;10289447;28;870;-71
2024/03/08 01:53:42;;;;;;;;;;;;;;;17.62;43.78;99821.50;10289344;28;1898;-71
2024/03/08 01:58:38;;;;;;;;;;;;;;;17.62;43.63;99832.06;10289239;28;818;-71
2024/03/08 02:03:35;;;;;;;;;;;;;;;17.60;43.60;99818.06;10288455;28;901;-71
2024/03/08 02:08:31;;;;;;;;;;;;;;;17.61;43.58;99818.97;10288943;28;1255;-71
2024/03/08 02:13:28;;;;;;;;;;;;;;;17.60;43.62;99814.59;10288627;28;1910;-71
2024/03/08 02:18:24;;;;;;;;;;;;;;;17.59;43.77;99808.47;10288325;28;851;-71
2024/03/08 02:23:20;;;;;;;;;;;;;;;17.57;43.78;99802.38;10288249;28;818;-71
2024/03/08 02:28:15;;;;;;;;;;;;;;;17.57;43.69;99791.00;10288020;28;906;-71
2024/03/08 02:33:11;;;;;;;;;;;;;;;17.57;43.68;99791.00;10287793;28;1886;-71
2024/03/08 02:38:08;;;;;;;;;;;;;;;17.55;43.86;99782.28;10287562;28;806;-71
2024/03/08 02:43:04;;;;;;;;;;;;;;;17.53;43.69;99780.59;10287488;28;810;-71
2024/03/08 02:48:00;;;;;;;;;;;;;;;17.52;43.68;99773.59;10287441;28;835;-71
2024/03/08 02:52:56;;;;;;;;;;;;;;;17.52;43.78;99765.69;10287609;28;1898;-71
2024/03/08 02:57:52;;;;;;;;;;;;;;;17.52;43.62;99764.81;10287696;28;926;-71
2024/03/08 03:02:48;;;;;;;;;;;;;;;17.51;43.77;99757.84;10287241;28;1104;-71
2024/03/08 03:07:44;;;;;;;;;;;;;;;17.50;43.58;99756.13;10286921;28;1424;-71
2024/03/08 03:12:40;;;;;;;;;;;;;;;17.49;43.56;99757.06;10286239;28;1914;-71
2024/03/08 03:17:35;;;;;;;;;;;;;;;17.48;43.56;99745.66;10286043;28;807;-71
2024/03/08 03:22:33;;;;;;;;;;;;;;;17.47;43.66;99741.28;10285917;28;1040;-71
2024/03/08 03:27:30;;;;;;;;;;;;;;;17.46;43.44;99733.47;10286338;28;881;-71
2024/03/08 03:32:26;;;;;;;;;;;;;;;17.46;43.51;99736.09;10286149;28;1910;-71
2024/03/08 03:37:22;;;;;;;;;;;;;;;17.46;43.50;99728.19;10286141;28;924;-71
2024/03/08 03:42:18;;;;;;;;;;;;;;;17.44;43.67;99727.41;10285915;28;794;-71
2024/03/08 03:47:14;;;;;;;;;;;;;;;17.43;43.53;99721.28;10285111;28;969;-71
2024/03/08 03:52:10;;;;;;;;;;;;;;;17.43;43.40;99717.78;10285571;28;1902;-71
2024/03/08 03:57:07;;;;;;;;;;;;;;;17.42;43.47;99716.94;10285087;28;953;-71
2024/03/08 04:02:03;;;;;;;;;;;;;;;17.41;43.64;99714.38;10285409;28;885;-71
2024/03/08 04:06:59;;;;;;;;;;;;;;;17.40;43.50;99702.97;10285131;28;1235;-71
2024/03/08 04:11:56;;;;;;;;;;;;;;;17.40;43.47;99699.50;10285548;28;1910;-71
2024/03/08 04:16:52;;;;;;;;;;;;;;;17.40;43.57;99702.13;10284290;28;917;-71
2024/03/08 04:21:48;;;;;;;;;;;;;;;17.38;43.52;99696.91;10284406;28;845;-71
2024/03/08 04:26:44;;;;;;;;;;;;;;;17.39;43.54;99692.50;10284276;28;805;-71
2024/03/08 04:31:40;;;;;;;;;;;;;;;17.37;43.60;99681.16;10284093;28;1898;-71
2024/03/08 04:36:36;;;;;;;;;;;;;;;17.37;43.69;99676.75;10284693;28;849;-72
2024/03/08 04:41:34;;;;;;;;;;;;;;;17.38;43.51;99677.63;10283976;28;1087;-71
2024/03/08 04:46:29;;;;;;;;;;;;;;;17.38;43.50;99674.97;10283134;28;1008;-71
2024/03/08 04:51:25;;;;;;;;;;;;;;;17.39;43.68;99677.53;10283748;28;1898;-71
2024/03/08 04:56:21;;;;;;;;;;;;;;;17.40;43.60;99670.50;10283663;28;869;-71
2024/03/08 05:01:17;;;;;;;;;;;;;;;17.40;43.63;99671.34;10290490;28;866;-71
2024/03/08 05:06:13;;;;;;;;;;;;;;;17.42;43.48;99668.63;10291145;28;1227;-71
2024/03/08 05:11:09;;;;;;;;;;;;;;;17.42;43.59;99668.63;10291541;28;1910;-71
2024/03/08 05:16:07;;;;;;;;;;;;;;;17.43;43.47;99662.47;10290815;28;910;-71
2024/03/08 05:21:03;;;;;;;;;;;;;;;17.43;43.86;99659.81;10290530;28;941;-71
2024/03/08 05:25:59;;;;;;;;;;;;;;;17.44;43.64;99667.66;10290503;28;873;-71
2024/03/08 05:30:56;;;;;;;;;;;;;;;17.46;43.34;99659.69;10290191;28;1894;-71
2024/03/08 05:35:52;;;;;;;;;;;;;;;17.46;43.66;99657.91;10290704;28;850;-71
2024/03/08 05:40:48;;;;;;;;;;;;;;;17.47;43.42;99658.75;10290540;28;865;-71
2024/03/08 05:45:44;;;;;;;;;;;;;;;17.48;43.63;99663.13;10289894;28;878;-71
2024/03/08 05:50:40;;;;;;;;;;;;;;;17.48;43.46;99655.22;10289521;28;1886;-71
2024/03/08 05:55:36;;;;;;;;;;;;;;;17.49;43.64;99652.50;10288789;28;1187;-72
2024/03/08 06:00:31;;;;;;;;;;;;;;;17.50;43.55;99654.22;10289219;28;849;-71
2024/03/08 06:05:27;;;;;;;;;;;;;;;17.50;43.48;99650.72;10288927;28;1005;-72
2024/03/08 06:10:23;;;;;;;;;;;;;;;17.52;43.51;99656.78;10287992;28;1902;-71
2024/03/08 06:15:20;;;;;;;;;;;;;;;17.53;43.63;99661.16;10289286;28;889;-72
2024/03/08 06:20:16;;;;;;;;;;;;;;;17.53;43.42;99658.50;10288668;28;921;-71
2024/03/08 06:25:15;;;;;;;;;;;;;;;17.52;43.49;99655.00;10288831;28;856;-75
2024/03/08 06:30:11;;;;;;;;;;;;;;;17.54;43.60;99654.94;10288598;28;901;-71
2024/03/08 06:35:08;;;;;;;;;;;;;;;17.54;43.41;99657.56;10287736;28;1906;-74
2024/03/08 06:40:03;;;;;;;;;;;;;;;17.55;43.39;99656.63;10287599;28;897;-72
2024/03/08 06:45:04;;;;;;;;;;;;;;;17.56;43.20;99657.53;10288009;28;790;-71
2024/03/08 06:50:00;;;;;;;;;;;;;;;17.57;43.47;99660.06;10287080;28;967;-71
2024/03/08 06:54:57;;;;;;;;;;;;;;;17.56;43.48;99660.16;10288008;28;1898;-74
2024/03/08 06:59:54;;;;;;;;;;;;;;;17.58;43.31;99661.81;10287384;28;826;-71
2024/03/08 07:04:50;;;;;;;;;;;;;;;17.57;43.34;99654.81;10287502;28;867;-71
2024/03/08 07:09:46;;;;;;;;;;;;;;;17.56;43.55;99653.09;10286346;28;1395;-71
2024/03/08 07:14:45;;;;;;;;;;;;;;;17.54;43.59;99652.31;10285608;28;1979;-72
2024/03/08 07:19:40;;;;;;;;;;;;;;;17.52;43.50;99651.50;10285991;28;889;-71
2024/03/08 07:29:33;;;;;;;;;;;;;;;17.49;43.42;99659.56;10285733;28;944;-74
2024/03/08 07:34:31;;;;;;;;;;;;;;;17.45;43.45;99645.66;10285515;28;1898;-71
2024/03/08 07:39:27;;;;;;;;;;;;;;;17.45;43.34;99644.81;10286132;28;873;-71
2024/03/08 07:44:23;;;;;;;;;;;;;;;17.45;43.58;99634.28;10284609;28;865;-71
2024/03/08 07:49:19;;;;;;;;;;;;;;;17.44;43.48;99633.41;10285228;28;909;-72
2024/03/08 07:54:15;;;;;;;;;;;;;;;17.44;43.38;99630.75;10285533;28;1897;-86
2024/03/08 07:59:11;;;;;;;;;;;;;;;17.43;43.43;99630.84;10284219;28;1239;-71
2024/03/08 08:04:11;;;;;;;;;;;;;;;17.43;43.34;99625.56;10284763;28;870;-71
2024/03/08 08:09:28;;;;;;;;;;;;;;;17.44;43.14;99617.59;10284672;28;1108;-71
2024/03/08 08:14:23;;;;;;;;;;;;;;;17.44;43.23;99609.69;10284490;28;1971;-71
2024/03/08 08:19:20;;;;;;;;;;;;;;;17.46;43.20;99607.00;10284458;28;811;-71
2024/03/08 08:24:16;;;;;;;;;;;;;;;17.47;43.21;99600.78;10284325;28;917;-71
2024/03/08 08:29:12;;;;;;;;;;;;;;;17.48;43.31;99589.34;10284282;28;806;-71
2024/03/08 08:34:08;;;;;;;;;;;;;;;17.47;43.19;99583.19;10287788;28;1965;-71
2024/03/08 08:39:04;;;;;;;;;;;;;;;17.50;43.28;99575.19;10292938;28;838;-70
2024/03/08 08:43:59;;;;;;;;;;;;;;;17.49;43.18;99564.69;10292130;28;980;-71
2024/03/08 08:48:56;;;;;;;;;;;;;;;17.51;43.21;99560.22;10292178;28;818;-71
2024/03/08 08:53:51;;;;;;;;;;;;;;;17.52;43.29;99562.75;10291670;28;1964;-71
2024/03/08 08:58:48;;;;;;;;;;;;;;;17.52;43.30;99556.63;10292364;28;927;-71
2024/03/08 09:03:46;;;;;;;;;;;;;;;17.52;43.21;99540.81;10291331;28;921;-70
2024/03/08 09:08:43;;;;;;;;;;;;;;;17.53;43.32;99542.56;10290998;28;1452;-70
2024/03/08 09:13:39;;;;;;;;;;;;;;;17.51;43.14;99531.22;10291679;28;1975;-71
2024/03/08 09:18:35;;;;;;;;;;;;;;;17.51;42.94;99521.53;10291539;28;843;-70
2024/03/08 09:23:31;;;;;;;;;;;;;;;17.51;42.94;99528.59;10291272;28;839;-70
2024/03/08 09:28:27;;;;;;;;;;;;;;;17.50;42.81;99511.94;10290520;28;968;-70
2024/03/08 09:33:23;;;;;;;;;;;;;;;17.52;42.73;99509.22;10290382;28;1902;-71
2024/03/08 09:38:20;;;;;;;;;;;;;;;17.50;42.54;99501.38;10290020;28;895;-70
2024/03/08 09:43:18;;;;;;;;;;;;;;;17.50;42.79;99496.13;10290307;28;897;-71
2024/03/08 09:48:13;;;;;;;;;;;;;;;17.50;42.69;99485.59;10289742;28;779;-71
2024/03/08 09:53:10;;;;;;;;;;;;;;;17.50;42.72;99475.03;10290018;28;1898;-71
2024/03/08 10:03:20;;;;;;;;;;;;;;;17.54;42.49;99459.94;10288646;28;629;-71
2024/03/08 10:08:16;;;;;;;;;;;;;;;17.56;42.63;99442.28;10288872;28;1202;-71
2024/03/08 10:13:13;;;;;;;;;;;;;;;17.57;42.63;99436.06;10289328;28;1971;-71
2024/03/08 10:18:10;;;;;;;;;;;;;;;17.59;42.67;99428.09;10289272;28;953;-71
2024/03/08 10:23:06;;;;;;;;;;;;;;;17.60;43.02;99422.72;10288372;28;799;-72
2024/03/08 10:28:04;;;;;;;;;;;;;;;17.61;42.93;99419.19;10288177;28;1047;-70
2024/03/08 10:33:00;;;;;;;;;;;;;;;17.63;42.85;99403.28;10288041;28;1898;-71
2024/03/08 10:37:59;;;;;;;;;;;;;;;17.64;42.68;99408.50;10288391;28;810;-71
2024/03/08 10:42:55;;;;;;;;;;;;;;;17.66;42.73;99401.38;10286967;28;1236;-70
2024/03/08 10:47:51;;;;;;;;;;;;;;;17.68;42.76;99404.81;10287425;28;878;-70
2024/03/08 10:52:48;;;;;;;;;;;;;;;17.69;42.70;99389.84;10287222;28;1997;-70
2024/03/08 10:57:44;;;;;;;;;;;;;;;17.69;42.85;99384.56;10286321;28;837;-70
2024/03/08 11:02:40;;;;;;;;;;;;;;;17.72;42.75;99373.88;10286490;28;1004;-71
2024/03/08 11:07:36;;;;;;;;;;;;;;;17.72;42.77;99374.72;10287428;28;1165;-71
2024/03/08 11:12:33;;;;;;;;;;;;;;;17.73;42.94;99365.84;10286980;28;1910;-70
2024/03/08 11:17:28;;;;;;;;;;;;;;;17.73;42.82;99359.75;10286901;28;860;-70
2024/03/08 11:22:26;;;;;;;;;;;;;;;17.77;42.99;99355.19;10286129;28;826;-70
2024/03/08 11:27:22;;;;;;;;;;;;;;;17.77;42.91;99345.50;10286511;28;886;-70
2024/03/08 11:32:18;;;;;;;;;;;;;;;17.78;42.90;99335.78;10285715;28;1897;-71
2024/03/08 11:37:14;;;;;;;;;;;;;;;17.80;42.98;99329.56;10286168;28;881;-71
2024/03/08 11:42:11;;;;;;;;;;;;;;;17.81;42.95;99325.97;10286157;28;861;-70
2024/03/08 11:47:07;;;;;;;;;;;;;;;17.81;43.13;99318.06;10285316;28;739;-71
2024/03/08 11:52:02;;;;;;;;;;;;;;;17.83;43.22;99307.44;10284470;28;1965;-70
2024/03/08 11:57:00;;;;;;;;;;;;;;;17.84;43.07;99299.47;10283293;28;1180;-70
2024/03/08 12:01:56;;;;;;;;;;;;;;;17.85;43.08;99289.78;10284264;28;893;-70
2024/03/08 12:06:52;;;;;;;;;;;;;;;17.86;43.20;99275.66;10284608;28;1288;-70
2024/03/08 12:11:48;;;;;;;;;;;;;;;17.85;42.97;99277.44;10284377;28;1985;-70
2024/03/08 12:16:44;;;;;;;;;;;;;;;17.88;43.14;99264.09;10284365;28;814;-73
2024/03/08 12:21:48;;;;;;;;;;;;;;;17.89;43.05;99254.41;10284650;28;803;-70
2024/03/08 12:26:44;;;;;;;;;;;;;;;17.91;43.12;99252.53;10283722;28;842;-69
2024/03/08 12:31:42;;;;;;;;;;;;;;;17.93;42.90;99240.13;10283867;28;1968;-69
2024/03/08 12:36:38;;;;;;;;;;;;;;;17.94;43.02;99244.47;10283552;28;960;-70
2024/03/08 12:41:34;;;;;;;;;;;;;;;17.98;42.90;99234.63;10284010;28;850;-69
2024/03/08 12:46:32;;;;;;;;;;;;;;;18.02;42.90;99223.81;10283189;28;1012;-69
2024/03/08 12:51:29;;;;;;;;;;;;;;;18.04;43.02;99214.06;10284148;28;1910;-69
2024/03/08 12:56:25;;;;;;;;;;;;;;;18.08;43.04;99204.22;10283500;28;798;-69
2024/03/08 13:01:22;;;;;;;;;;;;;;;18.13;42.89;99184.56;10283388;28;919;-69
2024/03/08 13:06:19;;;;;;;;;;;;;;;18.17;42.83;99180.81;10282224;28;1217;-69
2024/03/08 13:11:15;;;;;;;;;;;;;;;18.22;42.96;99187.66;10283140;28;1914;-71
2024/03/08 13:16:14;;;;;;;;;;;;;;;18.26;42.87;99184.75;10282973;28;818;-69
2024/03/08 13:21:10;;;;;;;;;;;;;;;18.31;42.89;99160.75;10287152;28;921;-69
2024/03/08 13:26:07;;;;;;;;;;;;;;;18.37;42.77;99165.72;10290179;28;1209;-69
2024/03/08 13:31:02;;;;;;;;;;;;;;;18.42;42.72;99162.78;10290212;28;1957;-69
2024/03/08 13:36:00;;;;;;;;;;;;;;;18.47;42.56;99155.47;10290249;28;1017;-69
2024/03/08 13:40:56;;;;;;;;;;;;;;;18.53;42.56;99156.00;10290020;28;909;-75
2024/03/08 13:45:52;;;;;;;;;;;;;;;18.59;42.67;99147.72;10289857;28;1014;-70
2024/03/08 13:50:49;;;;;;;;;;;;;;;18.64;42.48;99136.91;10290557;28;1902;-69
2024/03/08 13:55:44;;;;;;;;;;;;;;;18.71;42.31;99138.28;10290163;28;1590;-70
2024/03/08 14:00:43;;;;;;;;;;;;;;;18.77;42.67;99126.53;10289974;28;958;-69
2024/03/08 14:05:39;;;;;;;;;;;;;;;18.83;42.41;99113.81;10289177;28;1086;-69
2024/03/08 14:10:37;;;;;;;;;;;;;;;18.87;42.44;99111.88;10288507;28;1500;-69
2024/03/08 14:15:33;;;;;;;;;;;;;;;18.94;42.44;99115.00;10287789;28;1950;-71
2024/03/08 14:20:29;;;;;;;;;;;;;;;19.00;42.29;99088.25;10288830;28;838;-69
2024/03/08 14:25:25;;;;;;;;;;;;;;;19.06;42.10;99079.97;10289444;28;759;-69
2024/03/08 14:30:34;;;;;;;;;;;;;;;19.11;42.27;99074.41;10287224;28;852;-69
2024/03/08 14:35:30;;;;;;;;;;;;;;;19.16;42.08;99062.63;10287620;28;1874;-69
2024/03/08 14:40:26;;;;;;;;;;;;;;;19.18;42.08;99058.09;10288105;28;834;-69
2024/03/08 14:45:23;;;;;;;;;;;;;;;19.21;42.20;99057.06;10287304;28;758;-69
2024/03/08 14:50:19;;;;;;;;;;;;;;;19.24;42.05;99056.88;10287301;28;885;-69
2024/03/08 14:55:15;;;;;;;;;;;;;;;19.28;41.97;99045.16;10286973;28;1944;-69
2024/03/08 15:00:16;;;;;;;;;;;;;;;19.30;42.10;99040.66;10286704;28;803;-69
2024/03/08 15:05:13;;;;;;;;;;;;;;;19.33;42.15;99029.03;10287321;28;826;-70
2024/03/08 15:10:16;;;;;;;;;;;;;;;19.35;42.01;99024.53;10286735;28;1153;-70
2024/03/08 15:15:14;;;;;;;;;;;;;;;19.38;42.10;99027.81;10286094;28;1902;-69
2024/03/08 15:20:17;;;;;;;;;;;;;;;19.40;41.91;99020.66;10286013;28;857;-69
2024/03/08 15:25:20;;;;;;;;;;;;;;;19.43;41.88;99009.03;10286394;28;861;-70
2024/03/08 15:30:16;;;;;;;;;;;;;;;19.47;41.93;99000.84;10286483;28;798;-69
2024/03/08 15:35:13;;;;;;;;;;;;;;;19.48;41.93;98996.38;10285565;28;1894;-71
2024/03/08 15:40:12;;;;;;;;;;;;;;;19.49;41.93;98988.38;10285854;28;873;-69
2024/03/08 15:45:08;;;;;;;;;;;;;;;19.51;41.95;98977.69;10285967;28;1045;-73
2024/03/08 15:50:04;;;;;;;;;;;;;;;19.50;41.65;98976.00;10284338;28;970;-69
2024/03/08 15:55:00;;;;;;;;;;;;;;;19.47;41.54;98977.03;10284821;28;2008;-69
2024/03/08 15:59:59;;;;;;;;;;;;;;;19.41;41.44;98973.91;10284720;28;871;-69
2024/03/08 16:04:55;;;;;;;;;;;;;;;19.33;41.57;98968.25;10285758;28;818;-69
2024/03/08 16:09:51;;;;;;;;;;;;;;;19.24;41.30;98959.13;10284755;28;1259;-69
2024/03/08 16:14:47;;;;;;;;;;;;;;;19.12;41.19;98952.78;10284287;28;1910;-69
2024/03/08 16:19:43;;;;;;;;;;;;;;;19.03;41.24;98953.38;10285180;28;893;-70
2024/03/08 16:24:39;;;;;;;;;;;;;;;18.98;41.44;98955.44;10284710;28;882;-69
2024/03/08 16:29:35;;;;;;;;;;;;;;;18.94;41.12;98952.16;10284119;28;920;-70
2024/03/08 16:34:33;;;;;;;;;;;;;;;18.91;41.24;98949.66;10284459;28;1943;-71
2024/03/08 16:39:29;;;;;;;;;;;;;;;18.87;41.35;98950.81;10284511;28;857;-70
2024/03/08 16:44:26;;;;;;;;;;;;;;;18.86;41.62;98940.31;10284302;28;803;-69
2024/03/08 16:49:23;;;;;;;;;;;;;;;18.83;41.48;98941.38;10283651;28;997;-69
2024/03/08 16:54:21;;;;;;;;;;;;;;;18.82;41.52;98939.69;10286077;28;1894;-69
2024/03/08 16:59:17;;;;;;;;;;;;;;;18.80;41.80;98938.91;10292631;28;829;-70
2024/03/08 17:04:13;;;;;;;;;;;;;;;18.78;41.73;98939.00;10291454;28;976;-70
2024/03/08 17:09:11;;;;;;;;;;;;;;;18.76;41.86;98940.06;10292093;28;1492;-70
2024/03/08 17:14:07;;;;;;;;;;;;;;;18.75;41.64;98939.19;10290793;28;1950;-70
2024/03/08 17:19:06;;;;;;;;;;;;;;;18.75;41.88;98938.34;10290758;28;858;-71
2024/03/08 17:24:03;;;;;;;;;;;;;;;18.73;41.94;98929.63;10291091;28;846;-71
2024/03/08 17:28:59;;;;;;;;;;;;;;;18.73;41.84;98932.25;10290516;28;859;-70
2024/03/08 17:33:55;;;;;;;;;;;;;;;18.72;41.91;98936.69;10289961;28;1894;-70
2024/03/08 17:38:52;;;;;;;;;;;;;;;18.70;41.99;98943.84;10289938;28;883;-71
2024/03/08 17:43:48;;;;;;;;;;;;;;;18.70;41.91;98943.00;10289764;28;856;-71
2024/03/08 17:48:44;;;;;;;;;;;;;;;18.69;41.82;98938.69;10290187;28;806;-71
2024/03/08 17:53:40;;;;;;;;;;;;;;;18.69;41.82;98941.31;10289268;28;1957;-71
2024/03/08 17:58:36;;;;;;;;;;;;;;;18.68;42.00;98939.59;10288583;28;877;-71
2024/03/08 18:03:32;;;;;;;;;;;;;;;18.68;41.88;98947.53;10288977;28;950;-70
2024/03/08 18:08:28;;;;;;;;;;;;;;;18.69;41.92;98954.53;10288867;28;1212;-71
2024/03/08 18:13:23;;;;;;;;;;;;;;;18.67;42.17;98949.31;10288526;28;1969;-70
2024/03/08 18:18:20;;;;;;;;;;;;;;;18.67;42.10;98946.69;10289004;28;930;-70
2024/03/08 18:23:16;;;;;;;;;;;;;;;18.69;42.00;98946.59;10288187;28;909;-70
2024/03/08 18:28:12;;;;;;;;;;;;;;;18.68;42.00;98947.53;10287494;28;897;-71
2024/03/08 18:33:08;;;;;;;;;;;;;;;18.67;41.99;98946.69;10288340;28;1951;-71
2024/03/08 18:38:05;;;;;;;;;;;;;;;18.69;41.90;98942.16;10287651;28;885;-71
2024/03/08 18:43:01;;;;;;;;;;;;;;;18.69;42.00;98943.97;10288068;28;929;-70
2024/03/08 18:47:57;;;;;;;;;;;;;;;18.69;42.13;98933.41;10286725;28;838;-70
2024/03/08 18:52:53;;;;;;;;;;;;;;;18.70;42.13;98932.44;10287799;28;1886;-70
2024/03/08 18:57:49;;;;;;;;;;;;;;;18.70;42.15;98929.81;10286916;28;904;-71
2024/03/08 19:02:45;;;;;;;;;;;;;;;18.69;42.07;98923.69;10286647;28;856;-70
2024/03/08 19:07:42;;;;;;;;;;;;;;;18.70;41.98;98912.19;10286418;28;1172;-71
2024/03/08 19:12:38;;;;;;;;;;;;;;;18.71;42.13;98913.91;10286902;28;1902;-71
2024/03/08 19:17:34;;;;;;;;;;;;;;;18.71;42.08;98905.97;10286119;28;858;-71
2024/03/08 19:22:30;;;;;;;;;;;;;;;18.72;42.21;98902.38;10286038;28;838;-71
2024/03/08 19:27:26;;;;;;;;;;;;;;;18.72;42.09;98896.25;10286365;28;847;-71
2024/03/08 19:32:23;;;;;;;;;;;;;;;18.72;42.12;98896.25;10285252;28;1902;-71
2024/03/08 19:37:19;;;;;;;;;;;;;;;18.73;42.07;98887.38;10286011;28;826;-71
2024/03/08 19:42:15;;;;;;;;;;;;;;;18.73;42.07;98876.81;10285250;28;866;-71
2024/03/08 19:47:15;;;;;;;;;;;;;;;18.73;42.10;98877.69;10285764;28;973;-71
2024/03/08 19:52:11;;;;;;;;;;;;;;;18.74;42.20;98873.25;10284855;28;1894;-71
2024/03/08 19:57:07;;;;;;;;;;;;;;;18.75;42.32;98867.06;10286308;28;867;-71
2024/03/08 20:02:03;;;;;;;;;;;;;;;18.75;42.16;98867.06;10284677;28;775;-71
2024/03/08 20:06:59;;;;;;;;;;;;;;;18.77;42.13;98851.97;10284482;28;1268;-71
2024/03/08 20:11:55;;;;;;;;;;;;;;;18.76;42.13;98847.66;10284823;28;1906;-71
2024/03/08 20:16:51;;;;;;;;;;;;;;;18.77;42.12;98842.25;10284943;28;948;-71
2024/03/08 20:21:47;;;;;;;;;;;;;;;18.78;42.37;98843.09;10284198;28;787;-71
2024/03/08 20:26:43;;;;;;;;;;;;;;;18.79;42.22;98847.47;10284101;28;869;-71
2024/03/08 20:31:39;;;;;;;;;;;;;;;18.79;42.16;98844.81;10289827;28;1964;-71
2024/03/08 20:36:35;;;;;;;;;;;;;;;18.78;42.30;98837.81;10291943;28;913;-71
2024/03/08 20:41:31;;;;;;;;;;;;;;;18.77;42.23;98838.78;10292679;28;840;-71
2024/03/08 20:46:27;;;;;;;;;;;;;;;18.77;42.25;98825.59;10291974;28;861;-71
2024/03/08 20:51:24;;;;;;;;;;;;;;;18.78;42.29;98819.34;10292405;28;2209;-71
2024/03/08 20:56:20;;;;;;;;;;;;;;;18.76;42.22;98813.34;10291073;28;1253;-71
2024/03/08 21:01:15;;;;;;;;;;;;;;;18.75;42.34;98801.91;10291412;28;805;-71
2024/03/08 21:06:13;;;;;;;;;;;;;;;18.73;42.27;98793.22;10290940;28;1167;-71
2024/03/08 21:11:11;;;;;;;;;;;;;;;18.75;42.20;98790.50;10291721;28;1914;-71
2024/03/08 21:16:07;;;;;;;;;;;;;;;18.74;42.14;98791.44;10291138;28;1588;-71
2024/03/08 21:21:03;;;;;;;;;;;;;;;18.72;42.17;98788.88;10291613;28;774;-70
2024/03/08 21:26:01;;;;;;;;;;;;;;;18.73;42.26;98784.44;10290783;28;774;-70
2024/03/08 21:30:59;;;;;;;;;;;;;;;18.72;42.21;98785.38;10291145;28;1957;-70
2024/03/08 21:35:55;;;;;;;;;;;;;;;18.71;42.25;98773.16;10291593;28;810;-71
2024/03/08 21:40:52;;;;;;;;;;;;;;;18.71;42.29;98767.88;10289589;28;950;-70
2024/03/08 21:45:49;;;;;;;;;;;;;;;18.70;42.36;98768.78;10289959;28;996;-70
2024/03/08 21:50:44;;;;;;;;;;;;;;;18.68;42.42;98768.91;10290434;28;844;-70
2024/03/08 21:55:40;;;;;;;;;;;;;;;18.68;42.22;98766.25;10289645;28;1953;-70
2024/03/08 22:00:38;;;;;;;;;;;;;;;18.67;42.15;98766.34;10290093;28;941;-70
2024/03/08 22:05:35;;;;;;;;;;;;;;;18.66;42.30;98759.38;10289177;28;1694;-70
2024/03/08 22:10:31;;;;;;;;;;;;;;;18.64;42.43;98756.81;10289641;28;1125;-70
2024/03/08 22:15:27;;;;;;;;;;;;;;;18.61;42.29;98757.88;10288857;28;1917;-70
2024/03/08 22:20:32;;;;;;;;;;;;;;;18.60;42.21;98761.47;10288727;28;843;-71
2024/03/08 22:25:28;;;;;;;;;;;;;;;18.58;42.32;98754.59;10288464;28;932;-71
2024/03/08 22:30:24;;;;;;;;;;;;;;;18.56;42.33;98762.59;10289532;28;951;-70
2024/03/08 22:35:20;;;;;;;;;;;;;;;18.55;42.15;98755.63;10288046;28;1968;-70
2024/03/08 22:40:16;;;;;;;;;;;;;;;18.55;42.16;98752.97;10288578;28;835;-70
2024/03/08 22:45:16;;;;;;;;;;;;;;;18.54;42.31;98755.69;10288507;28;778;-70
2024/03/08 22:50:12;;;;;;;;;;;;;;;18.51;42.26;98756.75;10287516;28;830;-70
2024/03/08 22:55:08;;;;;;;;;;;;;;;18.49;42.31;98763.91;10286941;28;1953;-70
2024/03/08 23:00:15;;;;;;;;;;;;;;;18.48;42.19;98774.56;10287753;28;794;-71
2024/03/08 23:05:14;;;;;;;;;;;;;;;18.46;42.13;98758.81;10286967;28;972;-70
2024/03/08 23:10:12;;;;;;;;;;;;;;;18.46;42.29;98768.53;10286525;28;1903;-71
2024/03/08 23:15:14;;;;;;;;;;;;;;;18.44;42.20;98758.06;10286443;28;1965;-71
2024/03/08 23:20:14;;;;;;;;;;;;;;;18.42;42.31;98754.69;10286381;28;822;-71
2024/03/08 23:25:11;;;;;;;;;;;;;;;18.41;42.02;98747.69;10286209;28;790;-71
2024/03/08 23:30:10;;;;;;;;;;;;;;;18.41;42.33;98734.50;10286052;28;925;-71
2024/03/08 23:35:09;;;;;;;;;;;;;;;18.38;42.17;98738.19;10286288;28;1898;-71
2024/03/08 23:40:08;;;;;;;;;;;;;;;18.38;42.22;98740.81;10285713;28;829;-71
2024/03/08 23:45:04;;;;;;;;;;;;;;;18.37;42.24;98743.56;10286092;28;770;-71
2024/03/08 23:50:00;;;;;;;;;;;;;;;18.35;42.20;98730.47;10285326;28;920;-71
2024/03/08 23:54:56;;;;;;;;;;;;;;;18.35;42.28;98724.34;10286122;28;1902;-71
2024/03/08 23:59:53;;;;;;;;;;;;;;;18.34;42.27;98727.94;10285041;28;857;-71
